Pagrindinis puslapis
METAR-TAF:

METAR-TAF

Oro uostai :

Ankoridžas, Aliaska, Jungtinės Amerikos Valstijos

platuma: 61-10-28N, ilguma: 149-59-46W, Aukštis: 44 m

Dabartinis oras

Ataskaita buvo paskelbta 47 minutes, ne 10:53 UTC
Vėjas 7 kt iš Pietų
Temperatūra 9°C
Drėgmė 71%
Slėgis 1016 hPa
Matomumas: 16.1 km
Giedras dangus

METAR: PANC 041053Z 18007KT 10SM CLR 09/04 A3000 RMK AO2 SLP161 T00940039

Laikas: 03:40 (11:40 UTC)

Prognozė

Ataskaita buvo paskelbta 9 minutes, ne 11:31 UTC
Prognozė galioja nuo 04 metu 12 UTC su 05 metu 18 UTC
Vėjas 6 kt nuo kintamojo kryptimis
Matomumas: 10 km
Išsisklaidę debesys ne aukštis 6000 ft
Su prošvaistėmis ne aukštis 10000 ft

TAF: PANC 041131Z 0412/0518 VRB06KT P6SM SCT060 BKN100

Orai ataskaitas ir orų prognozės (METAR, TAF).

turimą stotys yra geltonos ir raudonos taškus žemėlapyje.

Perkelti pele per norėdami pamatyti stoties vardą.

Tada spustelėkite, norėdami matyti oro stebėjimo ir prognozės.

Norėdami pakeisti žemėlapį: spustelėkite ant žalios mygtukų su juodo kryžiaus žemyn,; žalią mygtuką su brūkšneliu, jei norite nutolinti; arba žalių rodyklių gretimoms žemėlapius.


METAR-TAF: